Griffin, Texas
Current Conditions -  °F | °C
As of 5:35 PM on Wednesday 22 Oct 2014 (Local Time) from KJSO Reporting Station
Clear Clear  
Wind Chill: 76°   Ceiling: Unl
Heat Index: 78°   Visibility: 10mi
Dew Point: 53°   Wind: 6mph
Humidity: 45%   Direction: 70°ENE
Pressure: 30.1"   Gusts: NA
Location:  32.0774°N, 95.1103°W
Report Text: KJSO 222235Z AUTO 07005KT 10SM CLR 24/11 A3010 RMK AO2 T02460118
Loading
Personal Weather Stations






























Interactive Weather Map
Tropical Storm Tracking
New forecast layout! Learn more

10-Day Weather Forecast

Advertisements
Track Severe Weather on mobile